createdAt,value
2022-10-23T00:01:15.001Z,11.89
2022-10-23T00:03:43.421Z,12.11
2022-10-23T00:06:12.136Z,12.10
2022-10-23T00:08:40.689Z,12.10
2022-10-23T00:11:10.079Z,12.26
2022-10-23T00:13:38.668Z,12.34
2022-10-23T00:16:07.378Z,12.30
2022-10-23T00:18:36.641Z,12.51
2022-10-23T00:21:05.557Z,12.67
2022-10-23T00:23:33.788Z,12.69
2022-10-23T00:26:01.789Z,12.59
2022-10-23T00:28:29.741Z,12.73
2022-10-23T00:30:57.781Z,12.83
2022-10-23T00:33:25.756Z,12.89
2022-10-23T00:35:55.005Z,12.98
2022-10-23T00:38:23.784Z,12.78
2022-10-23T00:40:52.269Z,12.28
2022-10-23T00:43:21.605Z,12.13
2022-10-23T00:45:49.708Z,12.33
2022-10-23T00:48:18.564Z,12.52
2022-10-23T00:50:48.983Z,12.67
2022-10-23T00:53:20.793Z,12.75
2022-10-23T00:55:51.742Z,12.38
2022-10-23T00:58:21.525Z,12.20
2022-10-23T01:00:52.284Z,12.14
2022-10-23T01:03:22.817Z,12.17
2022-10-23T01:05:57.348Z,12.42
2022-10-23T01:08:33.147Z,12.19
2022-10-23T01:11:08.957Z,11.88
2022-10-23T01:13:45.700Z,11.71
2022-10-23T01:16:18.252Z,11.51
2022-10-23T01:18:52.082Z,11.25
2022-10-23T01:21:29.892Z,11.01
2022-10-23T01:24:20.489Z,10.88
2022-10-23T01:26:57.208Z,10.82
2022-10-23T01:29:33.148Z,10.77
2022-10-23T01:32:05.885Z,10.66
2022-10-23T01:34:41.141Z,10.77
2022-10-23T01:37:12.435Z,10.69
2022-10-23T01:39:47.041Z,10.68
2022-10-23T01:42:20.295Z,10.38
2022-10-23T01:44:54.809Z,10.28
2022-10-23T01:47:29.877Z,10.22
2022-10-23T01:49:59.146Z,9.86
2022-10-23T01:52:27.206Z,9.82
2022-10-23T01:54:57.652Z,9.82
2022-10-23T01:57:28.933Z,9.76
2022-10-23T02:00:02.800Z,9.98
2022-10-23T02:02:34.071Z,10.05
2022-10-23T02:05:08.157Z,10.10
2022-10-23T02:07:36.842Z,10.00
2022-10-23T02:10:06.438Z,10.27
2022-10-23T02:12:41.591Z,10.35
2022-10-23T02:15:15.953Z,10.40
2022-10-23T02:17:52.438Z,10.48
2022-10-23T02:20:28.938Z,10.60
2022-10-23T02:23:02.669Z,10.55
2022-10-23T02:25:37.203Z,10.41
2022-10-23T02:28:10.773Z,10.49
2022-10-23T02:30:46.494Z,10.69
2022-10-23T02:33:15.702Z,10.75
2022-10-23T02:35:43.656Z,10.64
2022-10-23T02:38:31.734Z,10.59
2022-10-23T02:41:04.386Z,10.46
2022-10-23T02:43:38.274Z,10.40
2022-10-23T02:46:15.752Z,10.39
2022-10-23T02:48:49.532Z,10.53
2022-10-23T02:51:23.678Z,10.66
2022-10-23T02:54:02.626Z,10.88
2022-10-23T02:56:40.580Z,11.09
2022-10-23T02:59:16.665Z,11.31
2022-10-23T03:01:51.217Z,11.51
2022-10-23T03:04:22.374Z,11.59
2022-10-23T03:06:51.760Z,11.66
2022-10-23T03:09:20.127Z,11.90
2022-10-23T03:11:48.040Z,11.97
2022-10-23T03:14:16.077Z,11.83
2022-10-23T03:16:44.036Z,11.70
2022-10-23T03:19:14.265Z,11.59
2022-10-23T03:21:42.177Z,11.67
2022-10-23T03:24:10.210Z,11.68
2022-10-23T03:26:38.176Z,11.59
2022-10-23T03:29:06.095Z,11.66
2022-10-23T03:31:34.031Z,11.82
2022-10-23T03:34:04.101Z,11.91
2022-10-23T03:36:37.908Z,11.91
2022-10-23T03:39:05.928Z,11.97
2022-10-23T03:41:34.150Z,12.02
2022-10-23T03:44:02.141Z,12.13
2022-10-23T03:46:30.125Z,12.39
2022-10-23T03:48:59.007Z,12.61
2022-10-23T03:51:27.694Z,12.79
2022-10-23T03:53:57.036Z,12.96
2022-10-23T03:56:24.962Z,13.22
2022-10-23T03:58:52.895Z,13.40
2022-10-23T04:01:20.974Z,13.39
2022-10-23T04:03:48.900Z,13.38
2022-10-23T04:06:16.871Z,13.33
2022-10-23T04:08:45.206Z,13.27
2022-10-23T04:11:14.524Z,13.31
2022-10-23T04:13:42.405Z,13.46
2022-10-23T04:16:10.293Z,13.56
2022-10-23T04:18:38.231Z,13.61
2022-10-23T04:21:06.396Z,13.65
2022-10-23T04:23:34.761Z,13.66
2022-10-23T04:26:02.688Z,13.68
2022-10-23T04:28:31.964Z,13.61
2022-10-23T04:31:02.389Z,13.64
2022-10-23T04:33:30.339Z,13.67
2022-10-23T04:35:58.306Z,13.65
2022-10-23T04:38:26.569Z,13.60
2022-10-23T04:40:54.468Z,13.56
2022-10-23T04:43:22.405Z,13.51
2022-10-23T04:45:52.028Z,13.36
2022-10-23T04:48:20.019Z,13.22
2022-10-23T04:50:57.411Z,12.96
2022-10-23T04:53:25.676Z,12.99
2022-10-23T04:55:54.640Z,12.88
2022-10-23T04:58:22.960Z,12.51
2022-10-23T05:00:52.941Z,12.51
2022-10-23T05:03:21.621Z,12.45
2022-10-23T05:05:49.736Z,12.44
2022-10-23T05:08:18.295Z,12.41
2022-10-23T05:10:46.515Z,12.46
2022-10-23T05:13:14.783Z,12.57
2022-10-23T05:18:23.086Z,12.61
2022-10-23T05:20:55.360Z,12.74
2022-10-23T05:23:26.302Z,12.94
2022-10-23T05:25:54.676Z,13.09
2022-10-23T05:28:22.647Z,13.19
2022-10-23T05:30:52.726Z,13.38
2022-10-23T05:33:22.183Z,13.45
2022-10-23T05:35:50.345Z,13.73
2022-10-23T05:38:18.902Z,13.73
2022-10-23T05:40:46.780Z,13.96
2022-10-23T05:43:14.637Z,13.96
2022-10-23T05:45:42.549Z,14.15
2022-10-23T05:48:16.684Z,14.16
2022-10-23T05:50:51.744Z,14.12
2022-10-23T05:53:19.631Z,14.17
2022-10-23T05:55:47.529Z,14.20
2022-10-23T05:58:15.617Z,14.24
2022-10-23T06:00:43.528Z,14.15
2022-10-23T06:03:11.666Z,14.41
2022-10-23T06:08:14.047Z,14.49
2022-10-23T06:10:42.048Z,14.53
2022-10-23T06:13:10.180Z,14.44
2022-10-23T06:15:38.479Z,14.03
2022-10-23T06:18:07.142Z,14.00
2022-10-23T06:20:37.434Z,13.90
2022-10-23T06:23:05.430Z,14.00
2022-10-23T06:25:34.873Z,14.09
2022-10-23T06:28:02.789Z,14.25
2022-10-23T06:30:30.835Z,14.52
2022-10-23T06:33:02.046Z,14.77
2022-10-23T06:35:32.454Z,14.97
2022-10-23T06:38:00.373Z,14.96
2022-10-23T06:40:28.366Z,15.12
2022-10-23T06:42:58.178Z,15.14
2022-10-23T06:45:26.378Z,15.25
2022-10-23T06:47:54.391Z,15.14
2022-10-23T06:50:22.531Z,15.33
2022-10-23T06:52:50.494Z,15.31
2022-10-23T06:55:18.414Z,15.34
2022-10-23T06:57:46.642Z,15.24
2022-10-23T07:00:16.570Z,15.41
2022-10-23T07:02:45.022Z,15.41
2022-10-23T07:05:13.868Z,15.52
2022-10-23T07:07:42.041Z,15.67
2022-10-23T07:10:10.231Z,15.79
2022-10-23T07:12:38.204Z,15.89
2022-10-23T07:15:07.287Z,15.86
2022-10-23T07:17:36.634Z,15.74
2022-10-23T07:20:04.960Z,15.80
2022-10-23T07:22:33.235Z,15.89
2022-10-23T07:25:01.166Z,15.91
2022-10-23T07:27:29.387Z,15.78
2022-10-23T07:29:57.464Z,15.95
2022-10-23T07:32:28.120Z,15.95
2022-10-23T07:34:57.416Z,16.04
2022-10-23T07:37:29.941Z,16.07
2022-10-23T07:39:57.875Z,16.15
2022-10-23T07:42:26.148Z,16.35
2022-10-23T07:44:54.120Z,16.54
2022-10-23T07:47:22.041Z,16.63
2022-10-23T07:49:50.153Z,16.60
2022-10-23T07:52:19.479Z,16.72
2022-10-23T07:54:47.416Z,16.81
2022-10-23T07:57:15.369Z,16.88
2022-10-23T07:59:43.281Z,16.94
2022-10-23T08:02:13.351Z,17.14
2022-10-23T08:04:41.677Z,17.21
2022-10-23T08:07:09.669Z,17.22
2022-10-23T08:09:39.148Z,17.14
2022-10-23T08:12:07.505Z,17.17
2022-10-23T08:14:35.400Z,17.20
2022-10-23T08:17:05.253Z,17.19
2022-10-23T08:19:33.562Z,17.29
2022-10-23T08:22:01.550Z,17.24
2022-10-23T08:24:29.553Z,17.23
2022-10-23T08:26:59.454Z,17.20
2022-10-23T08:29:27.385Z,17.08
2022-10-23T08:31:57.427Z,17.24
2022-10-23T08:34:25.492Z,17.21
2022-10-23T08:36:53.385Z,17.32
2022-10-23T08:39:21.420Z,17.44
2022-10-23T08:41:52.331Z,17.35
2022-10-23T08:44:32.241Z,17.52
2022-10-23T08:47:05.120Z,17.48
2022-10-23T08:49:41.529Z,17.47
2022-10-23T08:52:16.852Z,17.41
2022-10-23T08:54:57.117Z,17.45
2022-10-23T08:57:33.478Z,17.57
2022-10-23T09:00:06.776Z,17.70
2022-10-23T09:02:39.640Z,17.95
2022-10-23T09:05:15.120Z,17.93
2022-10-23T09:07:58.563Z,17.83
2022-10-23T09:10:51.398Z,17.80
2022-10-23T09:13:41.724Z,17.89
2022-10-23T09:16:22.828Z,18.06
2022-10-23T09:18:51.503Z,18.35
2022-10-23T09:21:20.939Z,18.62
2022-10-23T09:23:49.004Z,18.95
2022-10-23T09:26:18.878Z,19.27
2022-10-23T09:28:49.065Z,19.32
2022-10-23T09:31:19.751Z,19.62
2022-10-23T09:33:58.600Z,19.83
2022-10-23T09:36:29.338Z,20.07
2022-10-23T09:39:00.147Z,20.27
2022-10-23T09:41:32.413Z,20.27
2022-10-23T09:44:18.861Z,20.28
2022-10-23T09:49:22.308Z,21.17
2022-10-23T09:52:00.004Z,21.09
2022-10-23T09:54:28.978Z,20.99
2022-10-23T09:56:59.827Z,21.22
2022-10-23T09:59:31.074Z,21.18
2022-10-23T10:02:03.973Z,21.57
2022-10-23T10:04:37.791Z,21.76
2022-10-23T10:07:07.791Z,21.69
2022-10-23T10:09:35.797Z,21.77
2022-10-23T10:12:25.764Z,21.95
2022-10-23T10:15:04.080Z,21.88
2022-10-23T10:17:44.656Z,22.03
2022-10-23T10:20:42.614Z,22.29
2022-10-23T10:23:19.089Z,21.91
2022-10-23T10:25:53.504Z,22.10
2022-10-23T10:28:33.209Z,22.31
2022-10-23T10:31:14.232Z,22.38
2022-10-23T10:33:56.696Z,22.79
2022-10-23T10:36:49.504Z,22.53
2022-10-23T10:39:28.928Z,22.77
2022-10-23T10:42:19.492Z,22.79
2022-10-23T10:45:01.662Z,22.44
2022-10-23T10:47:35.426Z,22.55
2022-10-23T10:50:16.665Z,22.00
2022-10-23T10:52:51.485Z,21.78
2022-10-23T10:55:26.176Z,22.34
2022-10-23T10:58:00.368Z,22.83
2022-10-23T11:00:31.433Z,23.09
2022-10-23T11:03:03.972Z,23.10
2022-10-23T11:05:37.312Z,23.22
2022-10-23T11:08:13.667Z,23.73
2022-10-23T11:10:45.699Z,23.44
2022-10-23T11:13:26.120Z,22.78
2022-10-23T11:15:59.138Z,22.21
2022-10-23T11:18:30.878Z,22.62
2022-10-23T11:21:10.773Z,22.63
2022-10-23T11:24:07.127Z,22.53
2022-10-23T11:26:46.925Z,22.63
2022-10-23T11:29:30.854Z,22.63
2022-10-23T11:32:15.712Z,22.33
2022-10-23T11:35:11.851Z,22.53
2022-10-23T11:37:42.456Z,22.91
2022-10-23T11:40:24.495Z,22.98
2022-10-23T11:42:53.549Z,22.75
2022-10-23T11:45:34.090Z,22.99
2022-10-23T11:48:03.693Z,22.82
2022-10-23T11:50:34.712Z,23.24
2022-10-23T11:53:15.089Z,23.94
2022-10-23T11:55:59.890Z,23.57
2022-10-23T11:58:32.720Z,23.34
2022-10-23T12:01:06.161Z,23.47
2022-10-23T12:03:42.772Z,23.76
2022-10-23T12:06:22.539Z,23.81
2022-10-23T12:08:56.080Z,23.65
2022-10-23T12:11:28.871Z,24.07
2022-10-23T12:13:57.909Z,23.59
2022-10-23T12:16:36.131Z,23.94
2022-10-23T12:19:20.477Z,24.19
2022-10-23T12:21:52.120Z,24.04
2022-10-23T12:24:59.409Z,23.79
2022-10-23T12:27:35.721Z,23.67
2022-10-23T12:30:22.040Z,23.64
2022-10-23T12:33:09.205Z,23.67
2022-10-23T12:36:12.357Z,23.50
2022-10-23T12:38:45.937Z,23.81
2022-10-23T12:41:18.294Z,24.11
2022-10-23T12:43:52.895Z,24.37
2022-10-23T12:46:31.688Z,24.44
2022-10-23T12:49:01.831Z,24.56
2022-10-23T12:51:31.836Z,24.37
2022-10-23T12:54:00.642Z,24.91
2022-10-23T12:56:36.902Z,24.81
2022-10-23T12:59:06.566Z,24.58
2022-10-23T13:01:39.357Z,24.05
2022-10-23T13:06:47.459Z,24.58
2022-10-23T13:09:24.665Z,24.57
2022-10-23T13:11:55.961Z,23.95
2022-10-23T13:14:39.455Z,24.11
2022-10-23T13:17:12.929Z,24.15
2022-10-23T13:19:40.913Z,23.66
2022-10-23T13:22:21.227Z,23.77
2022-10-23T13:24:49.541Z,24.10
2022-10-23T13:27:34.263Z,23.98
2022-10-23T13:30:04.030Z,24.03
2022-10-23T13:32:48.910Z,23.97
2022-10-23T13:35:23.474Z,24.06
2022-10-23T13:37:52.161Z,23.78
2022-10-23T13:40:26.197Z,24.30
2022-10-23T13:42:57.260Z,24.23
2022-10-23T13:45:27.072Z,23.72
2022-10-23T13:47:55.263Z,23.26
2022-10-23T13:50:23.253Z,23.34
2022-10-23T13:52:51.232Z,23.29
2022-10-23T13:55:23.546Z,23.31
2022-10-23T13:57:51.840Z,22.71
2022-10-23T14:00:21.477Z,22.49
2022-10-23T14:02:49.963Z,22.29
2022-10-23T14:05:17.917Z,22.25
2022-10-23T14:07:46.442Z,22.13
2022-10-23T14:10:14.601Z,22.19
2022-10-23T14:12:43.643Z,22.10
2022-10-23T14:15:13.144Z,22.19
2022-10-23T14:17:43.073Z,22.02
2022-10-23T14:20:12.166Z,22.00
2022-10-23T14:22:40.167Z,21.91
2022-10-23T14:25:08.602Z,21.52
2022-10-23T14:27:36.751Z,21.50
2022-10-23T14:30:05.447Z,21.48
2022-10-23T14:32:33.544Z,21.26
2022-10-23T14:35:03.975Z,21.03
2022-10-23T14:37:32.778Z,20.76
2022-10-23T14:40:01.292Z,20.54
2022-10-23T14:42:34.168Z,20.56
2022-10-23T14:45:02.814Z,20.47
2022-10-23T14:47:31.447Z,20.41
2022-10-23T14:49:59.475Z,20.51
2022-10-23T14:52:28.955Z,20.54
2022-10-23T14:54:57.152Z,20.55
2022-10-23T14:57:25.201Z,20.53
2022-10-23T14:59:53.183Z,20.31
2022-10-23T15:02:21.254Z,20.11
2022-10-23T15:04:49.412Z,19.98
2022-10-23T15:07:17.716Z,19.79
2022-10-23T15:09:47.297Z,19.62
2022-10-23T15:12:15.438Z,19.43
2022-10-23T15:14:43.399Z,19.33
2022-10-23T15:17:15.401Z,19.20
2022-10-23T15:19:43.892Z,19.03
2022-10-23T15:22:11.861Z,18.97
2022-10-23T15:24:39.937Z,18.84
2022-10-23T15:29:37.219Z,18.75
2022-10-23T15:32:07.762Z,18.74
2022-10-23T15:34:36.324Z,18.68
2022-10-23T15:37:05.507Z,18.55
2022-10-23T15:39:35.640Z,18.67
2022-10-23T15:42:06.266Z,18.71
2022-10-23T15:44:35.662Z,18.74
2022-10-23T15:47:03.637Z,18.59
2022-10-23T15:49:31.662Z,18.48
2022-10-23T15:52:00.252Z,18.50
2022-10-23T15:54:30.671Z,18.61
2022-10-23T15:57:00.845Z,18.45
2022-10-23T15:59:30.083Z,18.42
2022-10-23T16:01:59.806Z,18.45
2022-10-23T16:04:28.570Z,18.45
2022-10-23T16:06:56.479Z,18.29
2022-10-23T16:09:24.345Z,18.22
2022-10-23T16:11:52.291Z,18.12
2022-10-23T16:14:20.393Z,18.04
2022-10-23T16:16:48.322Z,18.06
2022-10-23T16:19:18.720Z,17.97
2022-10-23T16:21:46.642Z,18.03
2022-10-23T16:24:14.661Z,17.97
2022-10-23T16:26:42.872Z,18.02
2022-10-23T16:29:11.063Z,17.95
2022-10-23T16:31:38.979Z,17.86
2022-10-23T16:34:07.275Z,17.91
2022-10-23T16:36:39.149Z,17.74
2022-10-23T16:39:07.852Z,17.77
2022-10-23T16:41:35.992Z,17.68
2022-10-23T16:44:03.908Z,17.71
2022-10-23T16:46:32.032Z,17.72
2022-10-23T16:49:00.357Z,17.76
2022-10-23T16:51:29.762Z,17.74
2022-10-23T16:54:00.164Z,17.80
2022-10-23T16:56:29.996Z,17.80
2022-10-23T17:01:29.421Z,17.74
2022-10-23T17:03:58.187Z,17.70
2022-10-23T17:06:28.551Z,17.75
2022-10-23T17:08:58.863Z,17.73
2022-10-23T17:11:28.929Z,17.66
2022-10-23T17:13:59.885Z,17.55
2022-10-23T17:16:30.377Z,17.70
2022-10-23T17:18:58.609Z,17.63
2022-10-23T17:21:26.520Z,17.60
2022-10-23T17:23:54.577Z,17.64
2022-10-23T17:26:24.069Z,17.60
2022-10-23T17:28:52.649Z,17.58
2022-10-23T17:31:23.335Z,17.55
2022-10-23T17:33:53.247Z,17.49
2022-10-23T17:36:22.425Z,17.43
2022-10-23T17:38:51.022Z,17.39
2022-10-23T17:41:20.970Z,17.35
2022-10-23T17:43:50.807Z,17.26
2022-10-23T17:46:20.748Z,17.28
2022-10-23T17:48:48.850Z,17.25
2022-10-23T17:51:18.582Z,17.19
2022-10-23T17:53:48.590Z,17.18
2022-10-23T17:56:20.045Z,16.92
2022-10-23T17:58:48.233Z,16.89
2022-10-23T18:01:22.544Z,16.98
2022-10-23T18:03:50.524Z,16.90
2022-10-23T18:06:23.403Z,17.01
2022-10-23T18:08:54.281Z,16.96
2022-10-23T18:11:24.539Z,16.87
2022-10-23T18:13:53.108Z,16.84
2022-10-23T18:16:22.874Z,16.78
2022-10-23T18:18:51.741Z,16.82
2022-10-23T18:21:20.771Z,16.83
2022-10-23T18:23:49.153Z,16.82
2022-10-23T18:26:19.215Z,16.79
2022-10-23T18:28:48.863Z,16.84
2022-10-23T18:31:18.978Z,16.74
2022-10-23T18:33:48.754Z,16.84
2022-10-23T18:36:20.046Z,16.78
2022-10-23T18:38:48.077Z,16.81
2022-10-23T18:41:16.590Z,16.74
2022-10-23T18:43:45.371Z,16.75
2022-10-23T18:46:14.425Z,16.87
2022-10-23T18:48:43.452Z,16.86
2022-10-23T18:51:17.234Z,16.73
2022-10-23T18:53:46.995Z,16.70
2022-10-23T18:56:15.549Z,16.81
2022-10-23T18:58:43.804Z,16.66
2022-10-23T19:01:11.963Z,16.59
2022-10-23T19:03:39.942Z,16.54
2022-10-23T19:06:08.268Z,16.35
2022-10-23T19:08:39.905Z,16.40
2022-10-23T19:11:08.965Z,16.25
2022-10-23T19:13:39.185Z,16.11
2022-10-23T19:16:10.961Z,16.15
2022-10-23T19:18:39.897Z,16.15
2022-10-23T19:21:08.209Z,16.13
2022-10-23T19:23:44.304Z,16.01
2022-10-23T19:26:14.121Z,15.96
2022-10-23T19:28:45.523Z,15.69
2022-10-23T19:31:13.790Z,15.73
2022-10-23T19:33:41.967Z,15.59
2022-10-23T19:36:14.127Z,15.56
2022-10-23T19:38:44.197Z,15.40
2022-10-23T19:41:12.472Z,15.35
2022-10-23T19:43:40.505Z,15.40
2022-10-23T19:46:12.117Z,15.39
2022-10-23T19:48:44.338Z,15.34
2022-10-23T19:51:14.595Z,15.33
2022-10-23T19:53:44.485Z,15.22
2022-10-23T19:56:13.660Z,15.28
2022-10-23T19:58:42.189Z,15.05
2022-10-23T20:01:13.440Z,14.93
2022-10-23T20:03:42.877Z,14.73
2022-10-23T20:06:12.708Z,14.85
2022-10-23T20:08:40.813Z,14.69
2022-10-23T20:11:19.402Z,14.68
2022-10-23T20:13:48.567Z,14.69
2022-10-23T20:16:20.722Z,14.66
2022-10-23T20:18:48.780Z,14.68
2022-10-23T20:21:17.355Z,14.63
2022-10-23T20:23:45.873Z,14.61
2022-10-23T20:26:17.483Z,14.45
2022-10-23T20:28:47.142Z,14.52
2022-10-23T20:31:16.572Z,14.47
2022-10-23T20:33:44.669Z,14.56
2022-10-23T20:36:24.670Z,14.60
2022-10-23T20:38:53.234Z,14.52
2022-10-23T20:41:25.057Z,14.60
2022-10-23T20:43:52.980Z,14.61
2022-10-23T20:46:20.925Z,14.61
2022-10-23T20:48:48.935Z,14.57
2022-10-23T20:51:19.984Z,14.56
2022-10-23T20:53:49.138Z,14.49
2022-10-23T20:56:19.429Z,14.38
2022-10-23T20:58:49.113Z,14.30
2022-10-23T21:01:18.974Z,14.36
2022-10-23T21:03:51.354Z,14.38
2022-10-23T21:06:20.027Z,14.41
2022-10-23T21:08:48.320Z,14.36
2022-10-23T21:11:17.903Z,14.26
2022-10-23T21:13:46.389Z,14.29
2022-10-23T21:16:18.305Z,14.26
2022-10-23T21:18:47.140Z,14.19
2022-10-23T21:21:17.303Z,14.03
2022-10-23T21:23:45.336Z,14.00
2022-10-23T21:26:13.785Z,13.92
2022-10-23T21:28:47.353Z,13.95
2022-10-23T21:31:25.777Z,14.03
2022-10-23T21:33:53.956Z,14.23
2022-10-23T21:36:24.028Z,14.31
2022-10-23T21:38:54.415Z,14.22
2022-10-23T21:41:24.879Z,14.20
2022-10-23T21:43:54.990Z,14.10
2022-10-23T21:46:25.602Z,13.83
2022-10-23T21:48:54.152Z,13.73
2022-10-23T21:51:24.805Z,13.54
2022-10-23T21:53:54.962Z,13.54
2022-10-23T21:56:30.549Z,13.40
2022-10-23T21:58:58.927Z,13.51
2022-10-23T22:01:31.901Z,13.40
2022-10-23T22:04:00.085Z,13.33
2022-10-23T22:06:30.283Z,13.35
2022-10-23T22:09:00.407Z,13.31
2022-10-23T22:11:30.067Z,13.45
2022-10-23T22:13:59.610Z,13.46
2022-10-23T22:16:28.206Z,13.43
2022-10-23T22:18:57.552Z,13.38
2022-10-23T22:21:28.569Z,13.27
2022-10-23T22:23:58.561Z,13.31
2022-10-23T22:26:28.840Z,13.34
2022-10-23T22:28:58.232Z,13.25
2022-10-23T22:31:29.056Z,13.23
2022-10-23T22:33:59.129Z,13.24
2022-10-23T22:36:27.877Z,12.96
2022-10-23T22:38:57.094Z,12.92
2022-10-23T22:41:25.565Z,12.78
2022-10-23T22:43:56.453Z,12.71
2022-10-23T22:46:26.060Z,12.56
2022-10-23T22:48:54.528Z,12.41
2022-10-23T22:51:25.937Z,12.26
2022-10-23T22:53:53.898Z,12.29
2022-10-23T22:56:23.476Z,12.18
2022-10-23T22:58:51.776Z,12.26
2022-10-23T23:01:23.446Z,12.14
2022-10-23T23:03:52.104Z,12.19
2022-10-23T23:06:20.971Z,12.02
2022-10-23T23:08:51.431Z,12.14
2022-10-23T23:11:21.725Z,12.14
2022-10-23T23:13:50.922Z,12.18
2022-10-23T23:16:21.349Z,12.11
2022-10-23T23:18:49.316Z,11.93
2022-10-23T23:21:17.962Z,11.86
2022-10-23T23:23:46.423Z,11.87
2022-10-23T23:26:16.689Z,11.92
2022-10-23T23:28:45.795Z,11.92
2022-10-23T23:31:17.641Z,11.90
2022-10-23T23:33:45.636Z,11.91
2022-10-23T23:36:15.605Z,11.78
2022-10-23T23:38:43.529Z,11.91
2022-10-23T23:41:14.050Z,11.82
2022-10-23T23:43:44.034Z,11.90
2022-10-23T23:46:12.759Z,11.82
2022-10-23T23:48:42.370Z,12.01
2022-10-23T23:51:10.261Z,12.09
2022-10-23T23:53:38.203Z,12.00
2022-10-23T23:56:06.654Z,12.19
2022-10-23T23:58:34.572Z,12.09
